Time;durP1;ratioP1;P1;durP2;ratioP2;P2;SDS_P1;SDS_P2;PMS_P1;PMS_P2;Temp;Humidity;BMP_temperature;BMP_pressure;BME280_temperature;BME280_humidity;BME280_pressure;Samples;Min_cycle;Max_cycle;Signal;HPM_P1;HPM_P2
2024/04/09 00:00:41;;;;;;;16.23;12.18;;;15.00;99.90;;;;;;4974121;28;20046;-79
2024/04/09 00:03:08;;;;;;;15.45;12.48;;;15.00;99.90;;;;;;4986115;28;20061;-79
2024/04/09 00:05:39;;;;;;;15.70;11.50;;;15.00;99.90;;;;;;4974178;28;20538;-81
2024/04/09 00:08:07;;;;;;;14.43;12.27;;;15.00;99.90;;;;;;4986763;28;20137;-79
2024/04/09 00:10:36;;;;;;;15.30;11.70;;;15.00;99.90;;;;;;4979954;28;20422;-80
2024/04/09 00:13:04;;;;;;;15.82;13.75;;;15.00;99.90;;;;;;4991442;28;20050;-80
2024/04/09 00:15:41;;;;;;;17.48;13.00;;;15.00;99.90;;;;;;4974311;28;20490;-80
2024/04/09 00:18:17;;;;;;;14.88;12.95;;;15.00;99.90;;;;;;4991326;28;20418;-79
2024/04/09 00:20:45;;;;;;;19.40;14.05;;;15.00;99.90;;;;;;4983271;28;20470;-80
2024/04/09 00:23:16;;;;;;;16.75;13.77;;;14.90;99.90;;;;;;4973040;28;20099;-80
2024/04/09 00:25:45;;;;;;;24.15;15.65;;;15.00;99.90;;;;;;4973469;28;20136;-80
2024/04/09 00:28:11;;;;;;;21.63;16.93;;;15.00;99.90;;;;;;4968775;28;20053;-78
2024/04/09 00:30:40;;;;;;;22.77;18.90;;;14.90;99.90;;;;;;5004816;28;20408;-78
2024/04/09 00:33:09;;;;;;;21.02;17.83;;;14.90;99.90;;;;;;4984569;28;20482;-78
2024/04/09 00:35:35;;;;;;;20.35;17.27;;;14.90;99.90;;;;;;4988714;28;20052;-77
2024/04/09 00:38:06;;;;;;;20.17;17.85;;;14.90;99.90;;;;;;4985257;28;20108;-78
2024/04/09 00:40:32;;;;;;;19.02;17.15;;;14.90;99.90;;;;;;4972600;28;20409;-78
2024/04/09 00:43:02;;;;;;;23.33;20.45;;;14.90;99.90;;;;;;4974112;28;20100;-79
2024/04/09 00:45:32;;;;;;;23.70;19.55;;;14.90;99.90;;;;;;4988791;28;20755;-78
2024/04/09 00:48:02;;;;;;;22.92;20.40;;;14.90;99.90;;;;;;4973179;28;20056;-78
2024/04/09 00:50:29;;;;;;;22.80;20.02;;;14.90;99.90;;;;;;4982293;28;20089;-77
2024/04/09 00:52:58;;;;;;;24.15;21.75;;;14.90;99.90;;;;;;5009428;28;20517;-78
2024/04/09 00:55:27;;;;;;;19.23;17.25;;;14.90;99.90;;;;;;4987403;28;20505;-77
2024/04/09 00:57:53;;;;;;;23.15;17.88;;;14.90;99.90;;;;;;4968460;28;20121;-77
2024/04/09 01:00:22;;;;;;;22.02;17.95;;;14.90;99.90;;;;;;4985231;28;20443;-77
2024/04/09 01:02:48;;;;;;;20.48;17.92;;;14.90;99.90;;;;;;4987157;28;20564;-78
2024/04/09 01:05:15;;;;;;;26.98;23.08;;;14.90;99.90;;;;;;4984490;28;20037;-78
2024/04/09 01:07:42;;;;;;;29.23;23.58;;;14.90;99.90;;;;;;5016519;28;20061;-78
2024/04/09 01:10:11;;;;;;;23.95;21.38;;;14.90;99.90;;;;;;4985148;28;20495;-77
2024/04/09 01:12:39;;;;;;;23.13;20.38;;;14.90;99.90;;;;;;4970149;28;20089;-78
2024/04/09 01:15:06;;;;;;;25.20;18.95;;;14.90;99.90;;;;;;4984623;28;20077;-77
2024/04/09 01:17:33;;;;;;;21.60;19.35;;;14.80;99.90;;;;;;4985037;28;20153;-78
2024/04/09 01:19:59;;;;;;;20.65;18.48;;;14.80;99.90;;;;;;4984085;28;20061;-77
2024/04/09 01:22:32;;;;;;;22.67;20.38;;;14.80;99.90;;;;;;4984856;28;20058;-78
2024/04/09 01:24:58;;;;;;;24.05;21.50;;;14.70;99.90;;;;;;4965738;28;20143;-78
2024/04/09 01:27:25;;;;;;;24.30;21.20;;;14.70;99.90;;;;;;4971116;28;20446;-78
2024/04/09 01:29:53;;;;;;;23.05;20.70;;;14.70;99.90;;;;;;5012575;28;20049;-77
2024/04/09 01:32:20;;;;;;;24.75;22.13;;;14.70;99.90;;;;;;4987933;28;20053;-77
2024/04/09 01:34:46;;;;;;;23.80;21.40;;;14.60;99.90;;;;;;4971506;28;20053;-77
2024/04/09 01:37:13;;;;;;;22.50;20.20;;;14.60;99.90;;;;;;4988860;28;20472;-77
2024/04/09 01:39:40;;;;;;;25.02;22.40;;;14.60;99.90;;;;;;4968721;28;20605;-77
2024/04/09 01:42:06;;;;;;;28.10;23.58;;;14.60;99.90;;;;;;4970543;28;20042;-77
2024/04/09 01:44:32;;;;;;;25.80;23.23;;;14.50;99.90;;;;;;4983048;28;20930;-77
2024/04/09 01:46:58;;;;;;;27.80;24.98;;;14.50;99.90;;;;;;4987876;28;20045;-77
2024/04/09 01:49:25;;;;;;;24.67;22.23;;;14.40;99.90;;;;;;4983476;28;20578;-78
2024/04/09 01:51:51;;;;;;;24.40;22.05;;;14.40;99.90;;;;;;4970575;28;20046;-77
2024/04/09 01:54:18;;;;;;;26.20;23.45;;;14.40;99.90;;;;;;4984260;28;20041;-77
2024/04/09 01:56:44;;;;;;;26.02;23.42;;;14.40;99.90;;;;;;4963019;28;20076;-77
2024/04/09 01:59:11;;;;;;;29.70;26.77;;;14.40;99.90;;;;;;4968056;28;20506;-76
2024/04/09 02:01:40;;;;;;;28.27;25.27;;;14.40;99.90;;;;;;5012928;28;20049;-78
2024/04/09 02:04:05;;;;;;;24.50;21.90;;;14.40;99.90;;;;;;4970528;28;20057;-77
2024/04/09 02:06:32;;;;;;;24.75;22.30;;;14.40;99.90;;;;;;4984008;28;20069;-78
2024/04/09 02:08:58;;;;;;;26.98;22.30;;;14.40;99.90;;;;;;4981573;28;20054;-78
2024/04/09 02:11:28;;;;;;;26.63;23.25;;;14.40;99.90;;;;;;4985876;28;20053;-78
2024/04/09 02:13:55;;;;;;;;;;;14.40;99.90;;;;;;4968407;28;20061;-78
2024/04/09 02:16:24;;;;;;;24.88;22.27;;;14.40;99.90;;;;;;4970601;28;20060;-78
2024/04/09 02:18:51;;;;;;;24.40;22.00;;;14.40;99.90;;;;;;4974888;28;20046;-77
2024/04/09 02:21:22;;;;;;;40.65;32.38;;;14.40;99.90;;;;;;4970042;28;20045;-77
2024/04/09 02:23:51;;;;;;;25.90;23.42;;;14.40;99.90;;;;;;4984110;28;20053;-78
2024/04/09 02:26:21;;;;;;;28.17;25.27;;;14.40;99.90;;;;;;5021441;28;20049;-78
2024/04/09 02:28:46;;;;;;;35.00;28.67;;;14.30;99.90;;;;;;4984673;28;20106;-77
2024/04/09 02:31:12;;;;;;;27.10;23.60;;;14.40;99.90;;;;;;4982694;28;20042;-79
2024/04/09 02:33:38;;;;;;;26.05;23.52;;;14.30;99.90;;;;;;4971877;28;20050;-78
2024/04/09 02:36:05;;;;;;;26.73;24.10;;;14.40;99.90;;;;;;4974951;28;20145;-78
2024/04/09 02:38:36;;;;;;;29.00;25.67;;;14.40;99.90;;;;;;4989292;28;20046;-78
2024/04/09 02:41:03;;;;;;;27.58;24.75;;;14.40;99.90;;;;;;4988213;28;20195;-78
2024/04/09 02:43:28;;;;;;;27.27;24.08;;;14.40;99.90;;;;;;4991538;28;21385;-78
2024/04/09 02:45:55;;;;;;;29.20;26.20;;;14.40;99.90;;;;;;4983447;28;20498;-78
2024/04/09 02:48:20;;;;;;;25.15;22.65;;;14.40;99.90;;;;;;4986092;28;20042;-78
2024/04/09 02:50:56;;;;;;;25.67;22.17;;;14.40;99.90;;;;;;4973307;28;20041;-78
2024/04/09 02:53:23;;;;;;;32.13;28.45;;;14.40;99.90;;;;;;4988324;28;20045;-77
2024/04/09 02:56:08;;;;;;;24.25;21.83;;;14.50;99.90;;;;;;4990831;28;20049;-77
2024/04/09 02:58:35;;;;;;;24.52;22.02;;;14.40;99.90;;;;;;4972451;28;20046;-78
2024/04/09 03:01:08;;;;;;;22.48;20.23;;;14.40;99.90;;;;;;4987067;28;20061;-78
2024/04/09 03:03:35;;;;;;;25.17;21.45;;;14.40;99.90;;;;;;4969067;28;20046;-77
2024/04/09 03:06:12;;;;;;;25.15;22.55;;;14.40;99.90;;;;;;5019288;28;20566;-78
2024/04/09 03:08:39;;;;;;;22.15;19.67;;;14.40;99.90;;;;;;4985127;28;20051;-77
2024/04/09 03:11:16;;;;;;;24.27;21.70;;;14.40;99.90;;;;;;4973093;28;20064;-78
2024/04/09 03:13:44;;;;;;;23.17;20.75;;;14.40;99.90;;;;;;4986001;28;20068;-77
2024/04/09 03:16:18;;;;;;;24.85;21.08;;;14.40;99.90;;;;;;5008010;28;20050;-78
2024/04/09 03:18:44;;;;;;;24.40;21.73;;;14.40;99.90;;;;;;5015784;28;20045;-78
2024/04/09 03:21:11;;;;;;;23.73;21.27;;;14.40;99.90;;;;;;4991054;28;20096;-77
2024/04/09 03:23:38;;;;;;;25.17;22.58;;;14.40;99.90;;;;;;5003586;28;20042;-78
2024/04/09 03:26:11;;;;;;;26.23;23.33;;;14.40;99.90;;;;;;5016356;28;20495;-77
2024/04/09 03:28:38;;;;;;;26.00;23.40;;;14.40;99.90;;;;;;5020049;28;20494;-78
2024/04/09 03:31:04;;;;;;;24.83;22.15;;;14.30;99.90;;;;;;4973495;28;20141;-77
2024/04/09 03:33:30;;;;;;;27.50;22.80;;;14.30;99.90;;;;;;4989474;28;20052;-78
2024/04/09 03:36:00;;;;;;;23.17;18.88;;;14.40;99.90;;;;;;4987761;28;20402;-78
2024/04/09 03:38:27;;;;;;;;;;;14.30;99.90;;;;;;4986750;28;20081;-78
2024/04/09 03:41:04;;;;;;;22.88;20.38;;;14.30;99.90;;;;;;4987956;28;19931;-78
2024/04/09 03:43:31;;;;;;;20.20;18.08;;;14.30;99.90;;;;;;4987928;28;20058;-77
2024/04/09 03:46:14;;;;;;;22.23;18.08;;;14.30;99.90;;;;;;4987200;28;20583;-77
2024/04/09 03:48:42;;;;;;;19.08;17.05;;;14.30;99.90;;;;;;4987538;28;20068;-78
2024/04/09 03:51:08;;;;;;;20.52;18.23;;;14.30;99.90;;;;;;4971716;28;20049;-77
2024/04/09 03:53:34;;;;;;;21.63;17.23;;;14.30;99.90;;;;;;4987295;28;20042;-77
2024/04/09 03:56:05;;;;;;;17.85;15.27;;;14.30;99.90;;;;;;4987599;28;20096;-78
2024/04/09 03:58:37;;;;;;;16.40;14.00;;;14.30;99.90;;;;;;4970819;28;20060;-78
2024/04/09 04:01:05;;;;;;;17.15;13.05;;;14.30;99.90;;;;;;5019265;28;20509;-78
2024/04/09 04:03:36;;;;;;;18.23;14.52;;;14.30;99.90;;;;;;4978759;28;20074;-78
2024/04/09 04:06:02;;;;;;;16.45;12.95;;;14.30;99.90;;;;;;4962921;28;20054;-78
2024/04/09 04:08:29;;;;;;;18.15;13.68;;;14.30;99.90;;;;;;4968276;28;20078;-78
2024/04/09 04:10:56;;;;;;;12.80;11.40;;;14.30;99.90;;;;;;5011952;28;20049;-78
2024/04/09 04:13:24;;;;;;;16.10;12.60;;;14.30;99.90;;;;;;5006273;28;20038;-78
2024/04/09 04:16:01;;;;;;;12.45;11.00;;;14.20;99.90;;;;;;4977368;28;20052;-78
2024/04/09 04:18:27;;;;;;;15.73;12.65;;;14.20;99.90;;;;;;4970389;28;20054;-78
2024/04/09 04:20:56;;;;;;;15.43;12.32;;;14.20;99.90;;;;;;5009255;28;20152;-78
2024/04/09 04:23:22;;;;;;;13.10;10.90;;;14.20;99.90;;;;;;5020335;28;20125;-78
2024/04/09 04:25:59;;;;;;;16.70;12.57;;;14.20;99.90;;;;;;4980893;28;20057;-78
2024/04/09 04:28:25;;;;;;;14.43;10.32;;;14.20;99.90;;;;;;4986977;28;20145;-79
2024/04/09 04:30:50;;;;;;;11.00;8.82;;;14.10;99.90;;;;;;4987003;28;20045;-78
2024/04/09 04:33:16;;;;;;;10.80;8.80;;;14.10;99.90;;;;;;5015668;28;20613;-78
2024/04/09 04:35:42;;;;;;;11.00;9.30;;;14.20;99.90;;;;;;4999393;28;20056;-77
2024/04/09 04:38:10;;;;;;;12.38;9.88;;;14.10;99.90;;;;;;4985185;28;20435;-78
2024/04/09 04:40:36;;;;;;;12.38;9.98;;;14.10;99.90;;;;;;4967793;28;20042;-78
2024/04/09 04:43:03;;;;;;;10.50;9.27;;;14.10;99.90;;;;;;4986300;28;20526;-78
2024/04/09 04:45:31;;;;;;;15.15;11.18;;;14.10;99.90;;;;;;4989179;28;20406;-78
2024/04/09 04:47:58;;;;;;;13.65;12.25;;;14.10;99.90;;;;;;5019986;28;20049;-77
2024/04/09 04:50:24;;;;;;;13.45;12.07;;;14.10;99.90;;;;;;5008282;28;20097;-77
2024/04/09 04:52:49;;;;;;;14.25;12.52;;;14.10;99.90;;;;;;4994338;28;20438;-78
2024/04/09 04:55:15;;;;;;;14.10;12.10;;;14.10;99.90;;;;;;5017033;28;20045;-78
2024/04/09 04:57:41;;;;;;;13.15;11.85;;;14.10;99.90;;;;;;4986719;28;20041;-78
2024/04/09 05:00:10;;;;;;;12.75;11.48;;;14.10;99.90;;;;;;4958011;28;20053;-78
2024/04/09 05:02:40;;;;;;;12.00;10.77;;;14.10;99.90;;;;;;4958974;28;20046;-78
2024/04/09 05:05:07;;;;;;;13.85;12.38;;;14.00;99.90;;;;;;4972346;28;20043;-78
2024/04/09 05:07:34;;;;;;;15.02;11.23;;;14.00;99.90;;;;;;4998239;28;20099;-78
2024/04/09 05:10:00;;;;;;;10.90;9.35;;;14.00;99.90;;;;;;4983328;28;20088;-78
2024/04/09 05:12:26;;;;;;;10.07;7.95;;;14.00;99.90;;;;;;4970000;28;20046;-78
2024/04/09 05:14:52;;;;;;;11.05;6.95;;;13.90;99.90;;;;;;4983022;28;20565;-78
2024/04/09 05:17:18;;;;;;;10.70;8.15;;;13.90;99.90;;;;;;4969881;28;20050;-78
2024/04/09 05:19:44;;;;;;;9.15;7.07;;;13.90;99.90;;;;;;4986748;28;20045;-78
2024/04/09 05:22:11;;;;;;;9.38;7.20;;;13.80;99.90;;;;;;4969058;28;20042;-78
2024/04/09 05:24:43;;;;;;;8.75;5.90;;;13.80;99.90;;;;;;4989660;28;20112;-78
2024/04/09 05:27:09;;;;;;;8.70;5.90;;;13.70;99.90;;;;;;4986713;28;20808;-78
2024/04/09 05:29:35;;;;;;;8.00;5.32;;;13.70;99.90;;;;;;4972194;28;20130;-78
2024/04/09 05:32:00;;;;;;;9.77;6.00;;;13.70;99.90;;;;;;4986224;28;20077;-78
2024/04/09 05:34:26;;;;;;;8.95;7.53;;;13.60;99.90;;;;;;4981219;28;20383;-78
2024/04/09 05:36:52;;;;;;;9.32;7.00;;;13.70;99.90;;;;;;5018306;28;20096;-81
2024/04/09 05:39:19;;;;;;;10.90;8.90;;;13.60;99.90;;;;;;4967368;28;20446;-78
2024/04/09 05:41:45;;;;;;;10.85;8.85;;;13.60;99.90;;;;;;5018210;28;20088;-79
2024/04/09 05:44:14;;;;;;;12.55;10.73;;;13.70;99.90;;;;;;4968536;28;20056;-78
2024/04/09 05:46:40;;;;;;;14.40;11.70;;;13.60;99.90;;;;;;4982524;28;20518;-79
2024/04/09 05:49:07;;;;;;;13.38;11.02;;;13.60;99.90;;;;;;4987536;28;20077;-79
2024/04/09 05:51:36;;;;;;;11.18;8.93;;;13.60;99.90;;;;;;4970061;28;20041;-79
2024/04/09 05:54:02;;;;;;;11.85;7.55;;;13.60;99.90;;;;;;4973998;28;20042;-86
2024/04/09 05:56:28;;;;;;;8.45;5.68;;;13.60;99.90;;;;;;4972761;28;20073;-87
2024/04/09 05:58:53;;;;;;;9.63;5.80;;;13.60;99.90;;;;;;4990967;28;20498;-86
2024/04/09 06:01:19;;;;;;;9.23;5.45;;;13.50;99.90;;;;;;4974349;28;20042;-88
2024/04/09 06:03:45;;;;;;;8.68;4.50;;;13.50;99.90;;;;;;4970819;28;20045;-85
2024/04/09 06:06:11;;;;;;;8.60;4.38;;;13.50;99.90;;;;;;4970395;28;21071;-85
2024/04/09 06:08:37;;;;;;;8.73;4.15;;;13.40;99.90;;;;;;4970992;28;20042;-85
2024/04/09 06:11:04;;;;;;;9.55;3.88;;;13.40;99.90;;;;;;4970097;28;20050;-88
2024/04/09 06:13:30;;;;;;;9.93;3.65;;;13.30;99.90;;;;;;4970797;28;20046;-88
2024/04/09 06:15:56;;;;;;;8.60;2.80;;;13.40;99.90;;;;;;4971153;28;20541;-85
2024/04/09 06:18:32;;;;;;;7.03;2.80;;;13.30;99.90;;;;;;4974347;28;20046;-89
2024/04/09 06:20:57;;;;;;;7.60;3.13;;;13.30;99.90;;;;;;4976376;28;20064;-84
2024/04/09 06:23:23;;;;;;;8.48;2.83;;;13.20;99.90;;;;;;5001197;28;20054;-85
2024/04/09 06:25:54;;;;;;;8.90;2.65;;;13.20;99.90;;;;;;4988700;28;20042;-85
2024/04/09 06:28:20;;;;;;;6.85;2.33;;;13.10;99.90;;;;;;4973380;28;20502;-86
2024/04/09 06:30:46;;;;;;;8.32;2.95;;;13.10;99.90;;;;;;4970211;28;20034;-86
2024/04/09 06:33:12;;;;;;;13.32;3.33;;;13.10;99.90;;;;;;4972721;28;20083;-86
2024/04/09 06:35:47;;;;;;;7.63;2.50;;;13.00;99.90;;;;;;4988235;28;20096;-87
2024/04/09 06:38:20;;;;;;;6.93;2.17;;;13.00;99.90;;;;;;4973279;28;20425;-87
2024/04/09 06:40:49;;;;;;;10.50;2.55;;;13.00;99.90;;;;;;4988672;28;20058;-86
2024/04/09 06:43:18;;;;;;;8.77;2.75;;;13.00;99.90;;;;;;5007401;28;20042;-87
2024/04/09 06:45:44;;;;;;;7.65;2.92;;;13.00;99.90;;;;;;4969930;28;20092;-86
2024/04/09 06:48:10;;;;;;;11.27;2.90;;;13.00;99.90;;;;;;4972969;28;20763;-86
2024/04/09 06:50:36;;;;;;;8.70;2.13;;;13.00;99.90;;;;;;4986018;28;20397;-87
2024/04/09 06:53:06;;;;;;;10.13;2.50;;;12.90;99.90;;;;;;4972431;28;20073;-86
2024/04/09 06:55:32;;;;;;;8.52;2.60;;;12.90;99.90;;;;;;4972113;28;20063;-86
2024/04/09 06:57:58;;;;;;;10.98;2.50;;;12.90;99.90;;;;;;4972355;28;20080;-86
2024/04/09 07:00:23;;;;;;;8.50;2.60;;;12.90;99.90;;;;;;4985347;28;20046;-86
2024/04/09 07:02:49;;;;;;;10.90;2.38;;;13.00;99.90;;;;;;4971411;28;20610;-85
2024/04/09 07:05:15;;;;;;;8.07;2.20;;;13.00;99.90;;;;;;4973018;28;20042;-86
2024/04/09 07:07:41;;;;;;;7.78;2.10;;;13.00;99.90;;;;;;4972505;28;20053;-86
2024/04/09 07:10:07;;;;;;;7.43;2.30;;;13.10;99.90;;;;;;4969611;28;20495;-87
2024/04/09 07:12:33;;;;;;;7.88;2.00;;;13.10;99.90;;;;;;4973401;28;20132;-86
2024/04/09 07:15:00;;;;;;;8.43;2.47;;;13.10;99.90;;;;;;4989617;28;20141;-86
2024/04/09 07:17:26;;;;;;;7.75;2.90;;;13.10;99.90;;;;;;4975445;28;20053;-86
2024/04/09 07:19:55;;;;;;;11.40;3.30;;;13.10;99.90;;;;;;4989972;28;20046;-86
2024/04/09 07:22:21;;;;;;;8.63;3.10;;;13.10;99.90;;;;;;4977167;28;20046;-87
2024/04/09 07:24:47;;;;;;;6.78;3.10;;;13.10;99.90;;;;;;4988599;28;20037;-87
2024/04/09 07:27:13;;;;;;;10.82;2.92;;;13.20;99.90;;;;;;4992749;28;20052;-87
2024/04/09 07:29:39;;;;;;;6.95;2.75;;;13.20;99.90;;;;;;4988555;28;20041;-87
2024/04/09 07:32:12;;;;;;;9.02;3.50;;;13.20;99.90;;;;;;4975068;28;20041;-86
2024/04/09 07:34:46;;;;;;;7.78;2.30;;;13.20;99.90;;;;;;4971777;28;20039;-87
2024/04/09 07:37:11;;;;;;;7.35;2.17;;;13.20;99.90;;;;;;4973663;28;20049;-86
2024/04/09 07:39:44;;;;;;;7.80;2.17;;;13.20;99.90;;;;;;4988067;28;20125;-87
2024/04/09 07:42:10;;;;;;;9.18;2.60;;;13.10;99.90;;;;;;4974617;28;20054;-88
2024/04/09 07:44:36;;;;;;;9.98;2.80;;;13.10;99.90;;;;;;4989228;28;20417;-87
2024/04/09 07:47:03;;;;;;;10.73;2.70;;;13.10;99.90;;;;;;4986926;28;20125;-86
2024/04/09 07:49:29;;;;;;;9.68;2.88;;;13.10;99.90;;;;;;4970046;28;20092;-88
2024/04/09 07:51:54;;;;;;;8.45;2.60;;;13.10;99.90;;;;;;4982463;28;20034;-87
2024/04/09 07:54:21;;;;;;;8.43;3.00;;;13.10;99.90;;;;;;4973907;28;20070;-87
2024/04/09 07:56:48;;;;;;;9.43;3.65;;;13.10;99.90;;;;;;4986907;28;20049;-86
2024/04/09 07:59:13;;;;;;;13.05;3.35;;;13.10;99.90;;;;;;4986328;28;20053;-88
2024/04/09 08:01:39;;;;;;;9.85;2.85;;;13.10;99.90;;;;;;4974540;28;20042;-86
2024/04/09 08:04:06;;;;;;;8.52;3.33;;;13.10;99.90;;;;;;4975674;28;20045;-87
2024/04/09 08:06:33;;;;;;;9.50;3.40;;;13.10;99.90;;;;;;4990821;28;20494;-85
2024/04/09 08:08:59;;;;;;;8.05;3.50;;;13.00;99.90;;;;;;4988921;28;20490;-86
2024/04/09 08:11:25;;;;;;;9.10;3.40;;;13.10;99.90;;;;;;4973814;28;20045;-87
2024/04/09 08:13:51;;;;;;;10.48;3.70;;;13.20;99.90;;;;;;4975322;28;20057;-88
2024/04/09 08:16:18;;;;;;;7.97;4.38;;;13.10;99.90;;;;;;4976473;28;20414;-86
2024/04/09 08:18:44;;;;;;;9.65;4.22;;;13.20;99.90;;;;;;4986505;28;20070;-87
2024/04/09 08:21:10;;;;;;;10.68;4.75;;;13.20;99.90;;;;;;4975519;28;20084;-86
2024/04/09 08:23:36;;;;;;;10.95;3.97;;;13.20;99.90;;;;;;4971792;28;20045;-87
2024/04/09 08:26:03;;;;;;;10.10;4.53;;;13.20;99.90;;;;;;4975848;28;20505;-86
2024/04/09 08:28:29;;;;;;;9.27;4.43;;;13.20;99.90;;;;;;4971562;28;20046;-86
2024/04/09 08:30:54;;;;;;;7.82;4.28;;;13.30;99.90;;;;;;4976761;28;20133;-87
2024/04/09 08:36:44;;;;;;;9.45;4.00;;;13.20;99.90;;;;;;5447071;26;20346;-85
2024/04/09 08:39:12;;;;;;;9.82;4.22;;;13.40;99.90;;;;;;5423979;26;20035;-87
2024/04/09 08:41:39;;;;;;;8.75;3.90;;;13.30;99.90;;;;;;5417772;26;20482;-86
2024/04/09 08:44:08;;;;;;;13.02;4.22;;;13.30;99.90;;;;;;5423766;26;20024;-87
2024/04/09 08:46:36;;;;;;;9.07;4.75;;;13.40;99.90;;;;;;5423502;26;20485;-86
2024/04/09 08:49:05;;;;;;;10.05;5.35;;;13.50;99.90;;;;;;5417468;26;20010;-87
2024/04/09 08:51:33;;;;;;;9.52;4.60;;;13.50;99.90;;;;;;5418554;26;20013;-87
2024/04/09 08:54:01;;;;;;;7.68;5.78;;;13.50;99.90;;;;;;5422330;26;20006;-87
2024/04/09 08:56:28;;;;;;;8.13;5.05;;;13.60;99.90;;;;;;5420375;26;19999;-87
2024/04/09 08:58:55;;;;;;;8.32;5.45;;;13.60;99.90;;;;;;5415899;26;20004;-88
2024/04/09 09:01:29;;;;;;;7.95;5.90;;;13.70;99.90;;;;;;5425657;26;19999;-87
2024/04/09 09:03:56;;;;;;;13.65;6.25;;;14.00;99.90;;;;;;5420301;26;20011;-89
2024/04/09 09:06:23;;;;;;;11.43;5.35;;;14.10;99.90;;;;;;5423488;26;20024;-88
2024/04/09 09:08:51;;;;;;;8.25;4.88;;;14.20;99.90;;;;;;5425098;26;20074;-88
2024/04/09 09:11:21;;;;;;;8.98;5.25;;;14.10;99.90;;;;;;5424085;26;20031;-87
2024/04/09 09:13:48;;;;;;;8.35;5.85;;;14.10;99.90;;;;;;5424439;26;20030;-88
2024/04/09 09:16:15;;;;;;;7.80;5.18;;;14.20;99.90;;;;;;5421553;26;20014;-87
2024/04/09 09:18:43;;;;;;;8.35;5.25;;;14.30;99.90;;;;;;5418333;26;20043;-87
2024/04/09 09:21:11;;;;;;;7.40;5.00;;;14.50;99.90;;;;;;5424014;26;20027;-87
2024/04/09 09:23:38;;;;;;;6.63;4.30;;;14.60;99.90;;;;;;5419475;26;19996;-88
2024/04/09 09:26:06;;;;;;;7.93;5.40;;;14.60;99.90;;;;;;5418964;26;20012;-85
2024/04/09 09:28:33;;;;;;;8.20;5.07;;;14.60;99.90;;;;;;5427333;26;20032;-86
2024/04/09 09:31:00;;;;;;;8.30;4.82;;;14.60;99.90;;;;;;5422983;26;19999;-87
2024/04/09 09:33:31;;;;;;;8.05;4.55;;;14.60;99.90;;;;;;5426253;26;20038;-87
2024/04/09 09:36:01;;;;;;;7.60;3.97;;;14.60;99.90;;;;;;5420805;26;20014;-87
2024/04/09 09:38:29;;;;;;;6.10;4.00;;;14.50;99.90;;;;;;5426214;26;20027;-88
2024/04/09 09:40:57;;;;;;;6.82;4.38;;;14.40;99.90;;;;;;5423246;26;20470;-87
2024/04/09 09:43:26;;;;;;;8.35;4.65;;;14.40;99.90;;;;;;5377410;26;20048;-90
2024/04/09 09:45:54;;;;;;;6.15;4.28;;;14.30;99.90;;;;;;5417963;26;20039;-91
2024/04/09 09:48:25;;;;;;;8.48;4.20;;;14.30;99.90;;;;;;5410293;26;20020;-88
2024/04/09 09:50:52;;;;;;;6.68;4.05;;;14.30;99.90;;;;;;5408541;26;20042;-89
2024/04/09 09:53:19;;;;;;;7.97;3.83;;;14.40;99.90;;;;;;5410006;26;20028;-89
2024/04/09 09:55:51;;;;;;;5.93;3.60;;;14.50;99.90;;;;;;5414772;26;20035;-89
2024/04/09 09:58:21;;;;;;;7.63;3.55;;;14.50;99.90;;;;;;5404167;26;20028;-88
2024/04/09 10:00:52;;;;;;;7.78;2.97;;;14.60;99.90;;;;;;5410656;26;20039;-86
2024/04/09 10:03:21;;;;;;;4.55;2.67;;;14.60;99.90;;;;;;5405963;26;20029;-88
2024/04/09 10:05:49;;;;;;;5.63;2.72;;;14.60;99.90;;;;;;5411925;26;20071;-88
2024/04/09 10:08:21;;;;;;;6.03;1.95;;;14.70;99.90;;;;;;5404178;26;20043;-87
2024/04/09 10:10:50;;;;;;;5.95;1.88;;;14.70;99.90;;;;;;5404359;26;20036;-86
2024/04/09 10:13:24;;;;;;;4.77;1.90;;;14.80;99.90;;;;;;5405250;26;20498;-91
2024/04/09 10:15:56;;;;;;;6.57;1.88;;;14.90;99.90;;;;;;5409646;26;20031;-89
2024/04/09 10:18:26;;;;;;;6.75;1.75;;;15.10;99.90;;;;;;5401988;26;20031;-88
2024/04/09 10:20:54;;;;;;;4.57;1.50;;;15.10;99.90;;;;;;5414460;26;20027;-89
2024/04/09 10:23:22;;;;;;;4.30;1.48;;;15.00;99.90;;;;;;5408535;26;20039;-87
2024/04/09 10:25:50;;;;;;;5.80;1.55;;;15.00;99.90;;;;;;5410280;26;20490;-91
2024/04/09 10:28:32;;;;;;;7.07;1.70;;;15.00;99.90;;;;;;5403423;26;20027;-87
2024/04/09 10:31:01;;;;;;;4.20;1.70;;;15.00;99.90;;;;;;5405188;26;20033;-90
2024/04/09 10:33:56;;;;;;;3.60;1.67;;;15.10;99.90;;;;;;5410061;26;20423;-91
2024/04/09 10:36:23;;;;;;;5.40;1.90;;;15.20;99.90;;;;;;5407108;26;20273;-88
2024/04/09 10:38:50;;;;;;;6.60;2.17;;;15.30;99.90;;;;;;5410514;26;20032;-89
2024/04/09 10:41:19;;;;;;;4.20;1.90;;;15.40;99.90;;;;;;5405856;26;20494;-91
2024/04/09 10:43:46;;;;;;;4.60;2.25;;;15.40;99.90;;;;;;5409523;26;20040;-85
2024/04/09 10:46:13;;;;;;;4.90;2.17;;;15.30;99.90;;;;;;5400523;26;20353;-86
2024/04/09 10:48:40;;;;;;;4.25;2.22;;;15.30;99.90;;;;;;5403155;26;20017;-86
2024/04/09 10:51:08;;;;;;;5.70;2.35;;;15.40;99.90;;;;;;5401372;26;20011;-86
2024/04/09 10:53:35;;;;;;;5.53;1.75;;;15.40;99.90;;;;;;5400682;26;20032;-88
2024/04/09 10:56:03;;;;;;;4.15;1.80;;;15.40;99.90;;;;;;5405538;26;20039;-88
2024/04/09 10:58:30;;;;;;;4.88;1.55;;;15.30;99.90;;;;;;5406787;26;20821;-86
2024/04/09 11:01:00;;;;;;;5.15;2.00;;;15.20;99.90;;;;;;5410794;26;20001;-92
2024/04/09 11:03:33;;;;;;;6.63;2.28;;;15.20;99.90;;;;;;5407934;26;20044;-89
2024/04/09 11:06:01;;;;;;;4.93;1.88;;;15.00;99.90;;;;;;5433904;26;20100;-89
2024/04/09 11:08:30;;;;;;;4.90;1.70;;;14.80;99.90;;;;;;5399701;26;20871;-86
2024/04/09 11:11:01;;;;;;;5.65;1.60;;;14.70;99.90;;;;;;5409529;26;20225;-86
2024/04/09 11:13:29;;;;;;;5.25;1.77;;;14.60;99.90;;;;;;5404748;26;20014;-85
2024/04/09 11:15:57;;;;;;;4.93;1.60;;;14.60;99.90;;;;;;5404649;26;19999;-87
2024/04/09 11:18:24;;;;;;;5.28;1.60;;;14.60;99.90;;;;;;5407854;26;20474;-88
2024/04/09 11:20:56;;;;;;;6.38;1.60;;;14.60;99.90;;;;;;5410509;26;20051;-87
2024/04/09 11:23:25;;;;;;;5.50;1.52;;;14.60;99.90;;;;;;5400830;26;20020;-85
2024/04/09 11:25:53;;;;;;;7.90;1.60;;;14.50;99.90;;;;;;5403341;26;20039;-87
2024/04/09 11:28:22;;;;;;;5.43;1.58;;;14.50;99.90;;;;;;5407105;26;20040;-86
2024/04/09 11:30:52;;;;;;;2.97;0.93;;;14.50;99.90;;;;;;5406750;26;20674;-85
2024/04/09 11:33:20;;;;;;;4.82;1.35;;;14.40;99.90;;;;;;5407728;26;20273;-84
2024/04/09 11:35:59;;;;;;;3.53;1.20;;;14.30;99.90;;;;;;5404595;26;20007;-87
2024/04/09 11:38:26;;;;;;;4.72;1.42;;;14.30;99.90;;;;;;5403723;26;19999;-88
2024/04/09 11:40:55;;;;;;;7.15;1.90;;;14.30;99.90;;;;;;5407980;26;20039;-89
2024/04/09 11:43:23;;;;;;;5.18;1.42;;;14.30;99.90;;;;;;5411079;26;20020;-89
2024/04/09 11:45:58;;;;;;;5.43;1.27;;;14.30;99.90;;;;;;5400884;26;19999;-88
2024/04/09 11:48:27;;;;;;;3.83;1.17;;;14.40;99.90;;;;;;5406697;26;20027;-89
2024/04/09 11:50:54;;;;;;;7.18;1.20;;;14.40;99.90;;;;;;5403100;26;20731;-87
2024/04/09 11:53:22;;;;;;;5.55;1.05;;;14.30;99.90;;;;;;5406433;26;20047;-88
2024/04/09 11:55:49;;;;;;;4.43;1.30;;;14.30;99.90;;;;;;5407279;26;20051;-89
2024/04/09 11:58:16;;;;;;;4.20;1.13;;;14.20;99.90;;;;;;5405282;26;20013;-87
2024/04/09 12:00:43;;;;;;;4.20;1.17;;;14.20;99.90;;;;;;5374629;26;19999;-86
2024/04/09 12:03:12;;;;;;;5.80;1.60;;;14.10;99.90;;;;;;5408142;26;20035;-87
2024/04/09 12:05:39;;;;;;;6.88;1.33;;;14.10;99.90;;;;;;5400350;26;20027;-92
2024/04/09 12:08:06;;;;;;;10.70;1.77;;;14.10;99.90;;;;;;5406577;26;20037;-87
2024/04/09 12:10:33;;;;;;;5.80;1.15;;;14.10;99.90;;;;;;5409029;26;20027;-89
2024/04/09 12:13:00;;;;;;;5.60;1.20;;;14.20;99.90;;;;;;5403064;26;20481;-88
2024/04/09 12:15:28;;;;;;;26.05;3.72;;;14.30;99.90;;;;;;5415155;26;20399;-92
2024/04/09 12:18:04;;;;;;;17.65;2.13;;;14.40;99.90;;;;;;5407994;26;20024;-88
2024/04/09 12:20:31;;;;;;;18.00;1.67;;;14.40;99.90;;;;;;5407424;26;20031;-91
2024/04/09 12:22:58;;;;;;;5.97;1.10;;;14.40;99.90;;;;;;5405149;26;20386;-93
2024/04/09 12:25:25;;;;;;;3.60;0.90;;;14.50;99.90;;;;;;5404749;26;20036;-90
2024/04/09 12:27:53;;;;;;;12.65;1.52;;;14.50;99.90;;;;;;5405290;26;20034;-90
2024/04/09 12:30:20;;;;;;;10.95;2.00;;;14.50;99.90;;;;;;5409919;26;20023;-86
2024/04/09 12:32:47;;;;;;;17.63;1.77;;;14.30;99.90;;;;;;5406376;26;20036;-90
2024/04/09 12:35:14;;;;;;;4.80;1.40;;;14.20;99.90;;;;;;5409729;26;20031;-89
2024/04/09 12:37:42;;;;;;;6.00;1.42;;;14.10;99.90;;;;;;5403264;26;20007;-89
2024/04/09 12:40:11;;;;;;;4.28;1.35;;;14.00;99.90;;;;;;5410092;26;20031;-88
2024/04/09 12:42:38;;;;;;;5.38;1.23;;;14.00;99.90;;;;;;5405053;26;20039;-89
2024/04/09 12:45:06;;;;;;;4.60;1.20;;;14.00;99.90;;;;;;5410880;26;20036;-91